Time;durP1;ratioP1;P1;durP2;ratioP2;P2;SDS_P1;SDS_P2;PMS_P1;PMS_P2;Temp;Humidity;BMP_temperature;BMP_pressure;BME280_temperature;BME280_humidity;BME280_pressure;Samples;Min_cycle;Max_cycle;Signal;HPM_P1;HPM_P2
2022/09/21 00:01:37;;;;;;;;;;;;;;;;;;5075012;22;3814;-76
2022/09/21 00:04:03;;;;;;;;;;;;;;;;;;5060979;28;929;-76
2022/09/21 00:06:29;;;;;;;;;;;;;;;;;;5060455;28;783;-76
2022/09/21 00:08:54;;;;;;;;;;;;;;;;;;5060889;28;1902;-76
2022/09/21 00:11:23;;;;;;;;;;;;;;;;;;5061387;28;1275;-76
2022/09/21 00:13:50;;;;;;;;;;;;;;;;;;5060998;28;852;-76
2022/09/21 00:16:15;;;;;;;;;;;;;;;;;;5042322;28;847;-76
2022/09/21 00:18:41;;;;;;;;;;;;;;;;;;5060726;28;740;-76
2022/09/21 00:21:11;;;;;;;;;;;;;;;;;;5060890;28;1151;-76
2022/09/21 00:23:37;;;;;;;;;;;;;;;;;;5060697;28;1005;-76
2022/09/21 00:26:03;;;;;;;;;;;;;;;;;;5060278;28;981;-76
2022/09/21 00:28:28;;;;;;;;;;;;;;;;;;5060733;28;1959;-76
2022/09/21 00:30:53;;;;;;;;;;;;;;;;;;5060698;28;1164;-76
2022/09/21 00:33:18;;;;;;;;;;;;;;;;;;5060543;28;993;-76
2022/09/21 00:35:43;;;;;;;;;;;;;;;;;;5060182;28;894;-76
2022/09/21 00:38:09;;;;;;;;;;;;;;;;;;5043065;28;835;-76
2022/09/21 00:40:34;;;;;;;;;;;;;;;;;;5060594;28;1268;-76
2022/09/21 00:43:12;;;;;;;;;;;;;;;;;;5060670;28;976;-73
2022/09/21 00:45:38;;;;;;;;;;;;;;;;;;5059902;28;747;-76
2022/09/21 00:48:03;;;;;;;;;;;;;;;;;;5060506;28;1952;-76
2022/09/21 00:50:28;;;;;;;;;;;;;;;;;;5060308;28;1133;-76
2022/09/21 00:52:55;;;;;;;;;;;;;;;;;;5060542;28;815;-76
2022/09/21 00:55:23;;;;;;;;;;;;;;;;;;5059650;28;886;-76
2022/09/21 00:57:51;;;;;;;;;;;;;;;;;;5060372;28;989;-76
2022/09/21 01:00:17;;;;;;;;;;;;;;;;;;5059862;28;1265;-76
2022/09/21 01:02:42;;;;;;;;;;;;;;;;;;5060412;28;874;-76
2022/09/21 01:05:08;;;;;;;;;;;;;;;;;;5059534;28;885;-76
2022/09/21 01:07:35;;;;;;;;;;;;;;;;;;5042257;28;1890;-76
2022/09/21 01:10:04;;;;;;;;;;;;;;;;;;5060726;28;1180;-76
2022/09/21 01:12:32;;;;;;;;;;;;;;;;;;5046013;28;1750;-76
2022/09/21 01:15:00;;;;;;;;;;;;;;;;;;5062994;28;795;-76
2022/09/21 01:17:44;;;;;;;;;;;;;;;;;;5063829;28;1170;-76
2022/09/21 01:20:21;;;;;;;;;;;;;;;;;;5063524;28;1157;-76
2022/09/21 01:23:04;;;;;;;;;;;;;;;;;;5063746;28;1028;-76
2022/09/21 01:25:39;;;;;;;;;;;;;;;;;;5062899;28;965;-76
2022/09/21 01:28:13;;;;;;;;;;;;;;;;;;5063722;28;1956;-76
2022/09/21 01:30:39;;;;;;;;;;;;;;;;;;5063394;28;1263;-76
2022/09/21 01:33:16;;;;;;;;;;;;;;;;;;5063656;28;803;-76
2022/09/21 01:35:44;;;;;;;;;;;;;;;;;;5062718;28;974;-76
2022/09/21 01:38:30;;;;;;;;;;;;;;;;;;5063502;28;949;-76
2022/09/21 01:40:59;;;;;;;;;;;;;;;;;;5062256;28;1218;-76
2022/09/21 01:43:26;;;;;;;;;;;;;;;;;;5063412;28;791;-76
2022/09/21 01:45:53;;;;;;;;;;;;;;;;;;5062617;28;996;-76
2022/09/21 01:48:20;;;;;;;;;;;;;;;;;;5063244;28;1897;-76
2022/09/21 01:50:49;;;;;;;;;;;;;;;;;;5063061;28;1164;-76
2022/09/21 01:53:22;;;;;;;;;;;;;;;;;;5063549;28;960;-76
2022/09/21 01:55:50;;;;;;;;;;;;;;;;;;5063133;28;989;-76
2022/09/21 01:58:23;;;;;;;;;;;;;;;;;;5063816;28;940;-76
2022/09/21 02:00:49;;;;;;;;;;;;;;;;;;5063430;28;1148;-76
2022/09/21 02:03:20;;;;;;;;;;;;;;;;;;5063954;28;803;-76
2022/09/21 02:05:46;;;;;;;;;;;;;;;;;;5062954;28;1629;-76
2022/09/21 02:08:11;;;;;;;;;;;;;;;;;;5063517;28;1897;-76
2022/09/21 02:10:56;;;;;;;;;;;;;;;;;;5063299;28;1152;-76
2022/09/21 02:13:25;;;;;;;;;;;;;;;;;;5062619;28;1112;-76
2022/09/21 02:16:05;;;;;;;;;;;;;;;;;;5062903;28;923;-76
2022/09/21 02:18:31;;;;;;;;;;;;;;;;;;5063539;28;961;-76
2022/09/21 02:20:57;;;;;;;;;;;;;;;;;;5063074;28;1160;-76
2022/09/21 02:23:31;;;;;;;;;;;;;;;;;;5062754;28;811;-76
2022/09/21 02:25:59;;;;;;;;;;;;;;;;;;5062714;28;795;-76
2022/09/21 02:28:39;;;;;;;;;;;;;;;;;;5063432;28;1902;-76
2022/09/21 02:31:12;;;;;;;;;;;;;;;;;;5063176;28;1231;-76
2022/09/21 02:33:44;;;;;;;;;;;;;;;;;;5063319;28;823;-76
2022/09/21 02:36:14;;;;;;;;;;;;;;;;;;5062519;28;894;-76
2022/09/21 02:38:46;;;;;;;;;;;;;;;;;;5063410;28;803;-76
2022/09/21 02:41:31;;;;;;;;;;;;;;;;;;5062767;28;1179;-76
2022/09/21 02:44:05;;;;;;;;;;;;;;;;;;5063050;28;1064;-74
2022/09/21 02:46:34;;;;;;;;;;;;;;;;;;5061901;28;905;-76
2022/09/21 02:49:08;;;;;;;;;;;;;;;;;;5062989;28;1899;-76
2022/09/21 02:51:53;;;;;;;;;;;;;;;;;;5062189;28;1132;-76
2022/09/21 02:54:23;;;;;;;;;;;;;;;;;;5061888;28;1141;-76
2022/09/21 02:56:50;;;;;;;;;;;;;;;;;;5062493;28;1051;-76
2022/09/21 02:59:15;;;;;;;;;;;;;;;;;;5062752;28;857;-76
2022/09/21 03:01:40;;;;;;;;;;;;;;;;;;5062594;28;1132;-76
2022/09/21 03:04:06;;;;;;;;;;;;;;;;;;5062776;28;795;-76
2022/09/21 03:06:32;;;;;;;;;;;;;;;;;;5062268;28;791;-76
2022/09/21 03:08:57;;;;;;;;;;;;;;;;;;5062500;28;1965;-76
2022/09/21 03:11:23;;;;;;;;;;;;;;;;;;5062589;28;1183;-76
2022/09/21 03:13:48;;;;;;;;;;;;;;;;;;5062399;28;913;-76
2022/09/21 03:16:13;;;;;;;;;;;;;;;;;;5062082;28;981;-76
2022/09/21 03:18:39;;;;;;;;;;;;;;;;;;5062531;28;803;-76
2022/09/21 03:21:04;;;;;;;;;;;;;;;;;;5062345;28;1333;-76
2022/09/21 03:23:30;;;;;;;;;;;;;;;;;;5062367;28;1008;-76
2022/09/21 03:25:55;;;;;;;;;;;;;;;;;;5062017;28;795;-76
2022/09/21 03:28:20;;;;;;;;;;;;;;;;;;5062024;28;1889;-76
2022/09/21 03:30:49;;;;;;;;;;;;;;;;;;5062465;28;1172;-76
2022/09/21 03:33:15;;;;;;;;;;;;;;;;;;5061294;28;901;-76
2022/09/21 03:35:40;;;;;;;;;;;;;;;;;;5061172;28;997;-76
2022/09/21 03:38:07;;;;;;;;;;;;;;;;;;5062235;28;810;-75
2022/09/21 03:40:32;;;;;;;;;;;;;;;;;;5062139;28;1260;-76
2022/09/21 03:42:57;;;;;;;;;;;;;;;;;;5061789;28;803;-76
2022/09/21 03:45:23;;;;;;;;;;;;;;;;;;5061657;28;965;-76
2022/09/21 03:47:49;;;;;;;;;;;;;;;;;;5061857;28;1957;-76
2022/09/21 03:50:14;;;;;;;;;;;;;;;;;;5044036;28;1321;-76
2022/09/21 03:52:39;;;;;;;;;;;;;;;;;;5061864;28;799;-76
2022/09/21 03:55:05;;;;;;;;;;;;;;;;;;5061335;28;874;-76
2022/09/21 03:57:31;;;;;;;;;;;;;;;;;;5061794;28;1336;-75
2022/09/21 03:59:56;;;;;;;;;;;;;;;;;;5061849;28;1266;-76
2022/09/21 04:02:21;;;;;;;;;;;;;;;;;;5061897;28;866;-76
2022/09/21 04:04:47;;;;;;;;;;;;;;;;;;5061162;28;882;-76
2022/09/21 04:07:13;;;;;;;;;;;;;;;;;;5061682;28;1961;-76
2022/09/21 04:09:38;;;;;;;;;;;;;;;;;;5061606;28;893;-76
2022/09/21 04:12:03;;;;;;;;;;;;;;;;;;5061406;28;1184;-75
2022/09/21 04:14:28;;;;;;;;;;;;;;;;;;5060824;28;954;-75
2022/09/21 04:16:53;;;;;;;;;;;;;;;;;;5061821;28;791;-76
2022/09/21 04:19:19;;;;;;;;;;;;;;;;;;5061435;28;795;-75
2022/09/21 04:21:45;;;;;;;;;;;;;;;;;;5061694;28;1180;-75
2022/09/21 04:24:10;;;;;;;;;;;;;;;;;;5061387;28;979;-75
2022/09/21 04:26:35;;;;;;;;;;;;;;;;;;5060734;28;780;-75
2022/09/21 04:29:01;;;;;;;;;;;;;;;;;;5061216;28;2230;-75
2022/09/21 04:31:28;;;;;;;;;;;;;;;;;;5061387;28;1160;-75
2022/09/21 04:33:54;;;;;;;;;;;;;;;;;;5061261;28;799;-75
2022/09/21 04:36:20;;;;;;;;;;;;;;;;;;5060744;28;818;-75
2022/09/21 04:38:45;;;;;;;;;;;;;;;;;;5061190;28;922;-75
2022/09/21 04:41:10;;;;;;;;;;;;;;;;;;5061128;28;1191;-75
2022/09/21 04:43:36;;;;;;;;;;;;;;;;;;5061295;28;949;-75
2022/09/21 04:46:11;;;;;;;;;;;;;;;;;;5060117;28;889;-75
2022/09/21 04:48:37;;;;;;;;;;;;;;;;;;5061108;28;1889;-75
2022/09/21 04:51:02;;;;;;;;;;;;;;;;;;5060905;28;1176;-75
2022/09/21 04:53:28;;;;;;;;;;;;;;;;;;5061369;28;869;-75
2022/09/21 04:55:54;;;;;;;;;;;;;;;;;;5060435;28;795;-75
2022/09/21 04:58:19;;;;;;;;;;;;;;;;;;5061044;28;901;-75
2022/09/21 05:00:48;;;;;;;;;;;;;;;;;;5060877;28;1247;-75
2022/09/21 05:03:13;;;;;;;;;;;;;;;;;;5060914;28;831;-75
2022/09/21 05:05:38;;;;;;;;;;;;;;;;;;5060149;28;827;-75
2022/09/21 05:08:03;;;;;;;;;;;;;;;;;;5060895;28;1897;-75
2022/09/21 05:10:29;;;;;;;;;;;;;;;;;;5060616;28;1196;-75
2022/09/21 05:12:54;;;;;;;;;;;;;;;;;;5061017;28;870;-75
2022/09/21 05:15:20;;;;;;;;;;;;;;;;;;5060194;28;850;-75
2022/09/21 05:17:46;;;;;;;;;;;;;;;;;;5060755;28;854;-75
2022/09/21 05:20:11;;;;;;;;;;;;;;;;;;5060716;28;1187;-75
2022/09/21 05:22:36;;;;;;;;;;;;;;;;;;5060659;28;1098;-75
2022/09/21 05:25:01;;;;;;;;;;;;;;;;;;5059800;28;791;-75
2022/09/21 05:27:26;;;;;;;;;;;;;;;;;;5060678;28;1953;-75
2022/09/21 05:29:52;;;;;;;;;;;;;;;;;;5060473;28;1203;-75
2022/09/21 05:32:27;;;;;;;;;;;;;;;;;;5060641;28;874;-75
2022/09/21 05:34:55;;;;;;;;;;;;;;;;;;5059888;28;950;-75
2022/09/21 05:37:43;;;;;;;;;;;;;;;;;;5060547;28;818;-75
2022/09/21 05:40:10;;;;;;;;;;;;;;;;;;5060373;28;1175;-75
2022/09/21 05:42:35;;;;;;;;;;;;;;;;;;5060478;28;1104;-74
2022/09/21 05:45:00;;;;;;;;;;;;;;;;;;5059718;28;969;-75
2022/09/21 05:47:26;;;;;;;;;;;;;;;;;;5060276;28;1959;-75
2022/09/21 05:49:57;;;;;;;;;;;;;;;;;;5060229;28;1164;-75
2022/09/21 05:52:48;;;;;;;;;;;;;;;;;;5060193;28;834;-75
2022/09/21 05:55:13;;;;;;;;;;;;;;;;;;5054648;28;1747;-75
2022/09/21 05:57:56;;;;;;;;;;;;;;;;;;5061798;28;882;-75
2022/09/21 06:00:22;;;;;;;;;;;;;;;;;;5063283;28;1179;-75
2022/09/21 06:03:16;;;;;;;;;;;;;;;;;;5076598;22;2160;-65
2022/09/21 06:05:42;;;;;;;;;;;;;;;;;;5049439;28;1408;-65
2022/09/21 06:08:07;;;;;;;;;;;;;;;;;;5063582;28;1901;-65
2022/09/21 06:10:33;;;;;;;;;;;;;;;;;;5063500;28;843;-65
2022/09/21 06:12:58;;;;;;;;;;;;;;;;;;5047447;28;1230;-65
2022/09/21 06:15:23;;;;;;;;;;;;;;;;;;5042752;28;847;-65
2022/09/21 06:17:49;;;;;;;;;;;;;;;;;;5043347;28;981;-65
2022/09/21 06:20:14;;;;;;;;;;;;;;;;;;5043383;28;879;-66
2022/09/21 06:22:39;;;;;;;;;;;;;;;;;;5043131;28;1212;-65
2022/09/21 06:25:04;;;;;;;;;;;;;;;;;;5043002;28;855;-66
2022/09/21 06:27:30;;;;;;;;;;;;;;;;;;5042926;28;1997;-65
2022/09/21 06:29:55;;;;;;;;;;;;;;;;;;5043440;28;1013;-66
2022/09/21 06:32:20;;;;;;;;;;;;;;;;;;5043018;28;1159;-65
2022/09/21 06:34:45;;;;;;;;;;;;;;;;;;5042484;28;933;-65
2022/09/21 06:37:10;;;;;;;;;;;;;;;;;;5043254;28;989;-65
2022/09/21 06:39:35;;;;;;;;;;;;;;;;;;5043157;28;870;-66
2022/09/21 06:42:01;;;;;;;;;;;;;;;;;;5042933;28;1249;-65
2022/09/21 06:44:28;;;;;;;;;;;;;;;;;;5042793;28;847;-65
2022/09/21 06:46:53;;;;;;;;;;;;;;;;;;5058226;28;1890;-66
2022/09/21 06:49:18;;;;;;;;;;;;;;;;;;5043240;28;799;-65
2022/09/21 06:51:45;;;;;;;;;;;;;;;;;;5042779;28;1233;-65
2022/09/21 06:54:11;;;;;;;;;;;;;;;;;;5042728;28;898;-66
2022/09/21 06:56:36;;;;;;;;;;;;;;;;;;5042114;28;1025;-66
2022/09/21 06:59:01;;;;;;;;;;;;;;;;;;5025086;28;861;-65
2022/09/21 07:01:27;;;;;;;;;;;;;;;;;;5042564;28;1144;-66
2022/09/21 07:03:52;;;;;;;;;;;;;;;;;;5042439;28;796;-65
2022/09/21 07:06:19;;;;;;;;;;;;;;;;;;5042298;28;902;-66
2022/09/21 07:08:44;;;;;;;;;;;;;;;;;;5042229;28;1955;-66
2022/09/21 07:11:10;;;;;;;;;;;;;;;;;;5042678;28;1235;-65
2022/09/21 07:13:35;;;;;;;;;;;;;;;;;;5042340;28;922;-66
2022/09/21 07:16:05;;;;;;;;;;;;;;;;;;5041884;28;1025;-66
2022/09/21 07:18:32;;;;;;;;;;;;;;;;;;5042279;28;827;-66
2022/09/21 07:20:57;;;;;;;;;;;;;;;;;;5042677;28;890;-66
2022/09/21 07:23:23;;;;;;;;;;;;;;;;;;5024604;28;1239;-66
2022/09/21 07:25:49;;;;;;;;;;;;;;;;;;5041717;28;913;-66
2022/09/21 07:28:14;;;;;;;;;;;;;;;;;;5042200;28;1952;-66
2022/09/21 07:30:40;;;;;;;;;;;;;;;;;;5042258;28;898;-66
2022/09/21 07:33:05;;;;;;;;;;;;;;;;;;5042097;28;1218;-66
2022/09/21 07:35:30;;;;;;;;;;;;;;;;;;5041594;28;933;-66
2022/09/21 07:38:03;;;;;;;;;;;;;;;;;;5024351;28;1033;-66
2022/09/21 07:40:28;;;;;;;;;;;;;;;;;;5042442;28;791;-66
2022/09/21 07:42:57;;;;;;;;;;;;;;;;;;5041917;28;1140;-66
2022/09/21 07:45:23;;;;;;;;;;;;;;;;;;5041381;28;807;-66
2022/09/21 07:47:48;;;;;;;;;;;;;;;;;;5023766;28;1971;-66
2022/09/21 07:50:13;;;;;;;;;;;;;;;;;;5042070;28;942;-66
2022/09/21 07:52:38;;;;;;;;;;;;;;;;;;5041829;28;1212;-66
2022/09/21 07:55:04;;;;;;;;;;;;;;;;;;5041268;28;788;-66
2022/09/21 08:00:14;;;;;;;;;;;;;;;;;;5041888;28;692;-66
2022/09/21 08:02:39;;;;;;;;;;;;;;;;;;5041626;28;1141;-66
2022/09/21 08:05:04;;;;;;;;;;;;;;;;;;5023385;28;1282;-66
2022/09/21 08:07:29;;;;;;;;;;;;;;;;;;5041703;28;1957;-66
2022/09/21 08:09:55;;;;;;;;;;;;;;;;;;5041568;28;848;-66
2022/09/21 08:12:20;;;;;;;;;;;;;;;;;;5041627;28;1164;-66
2022/09/21 08:14:46;;;;;;;;;;;;;;;;;;5040627;28;811;-66
2022/09/21 08:17:12;;;;;;;;;;;;;;;;;;5041524;28;1110;-66
2022/09/21 08:19:37;;;;;;;;;;;;;;;;;;5056005;28;1474;-66
2022/09/21 08:22:02;;;;;;;;;;;;;;;;;;5041833;28;1184;-66
2022/09/21 08:24:27;;;;;;;;;;;;;;;;;;5040753;28;879;-66
2022/09/21 08:26:54;;;;;;;;;;;;;;;;;;5041591;28;819;-66
2022/09/21 08:29:20;;;;;;;;;;;;;;;;;;5041332;28;1989;-66
2022/09/21 08:31:45;;;;;;;;;;;;;;;;;;5041386;28;1128;-66
2022/09/21 08:34:10;;;;;;;;;;;;;;;;;;5041182;28;823;-66
2022/09/21 08:36:36;;;;;;;;;;;;;;;;;;5040696;28;783;-66
2022/09/21 08:39:01;;;;;;;;;;;;;;;;;;5041352;28;874;-66
2022/09/21 08:41:43;;;;;;;;;;;;;;;;;;5041611;28;1242;-67
2022/09/21 08:44:17;;;;;;;;;;;;;;;;;;5041231;28;885;-66
2022/09/21 08:46:43;;;;;;;;;;;;;;;;;;5040822;28;882;-66
2022/09/21 08:49:14;;;;;;;;;;;;;;;;;;5041202;28;1890;-66
2022/09/21 08:51:48;;;;;;;;;;;;;;;;;;5041103;28;1233;-66
2022/09/21 08:54:36;;;;;;;;;;;;;;;;;;5040831;28;819;-66
2022/09/21 08:57:01;;;;;;;;;;;;;;;;;;5030160;28;1426;-66
2022/09/21 08:59:27;;;;;;;;;;;;;;;;;;5040938;28;898;-66
2022/09/21 09:01:57;;;;;;;;;;;;;;;;;;5040909;28;1148;-66
2022/09/21 09:04:25;;;;;;;;;;;;;;;;;;5040664;28;1047;-67
2022/09/21 09:07:12;;;;;;;;;;;;;;;;;;5022876;28;871;-66
2022/09/21 09:09:56;;;;;;;;;;;;;;;;;;5040904;28;890;-66
2022/09/21 09:12:33;;;;;;;;;;;;;;;;;;5040890;28;1218;-66
2022/09/21 09:15:17;;;;;;;;;;;;;;;;;;5040037;28;886;-67
2022/09/21 09:17:42;;;;;;;;;;;;;;;;;;5041092;28;795;-67
2022/09/21 09:20:29;;;;;;;;;;;;;;;;;;5040769;28;891;-67
2022/09/21 09:23:16;;;;;;;;;;;;;;;;;;5040906;28;1113;-67
2022/09/21 09:25:42;;;;;;;;;;;;;;;;;;5021600;28;901;-67
2022/09/21 09:28:29;;;;;;;;;;;;;;;;;;5040623;28;1965;-67
2022/09/21 09:31:17;;;;;;;;;;;;;;;;;;5040556;28;1072;-67
2022/09/21 09:33:43;;;;;;;;;;;;;;;;;;5032850;28;1612;-67
2022/09/21 09:36:10;;;;;;;;;;;;;;;;;;5043323;28;854;-65
2022/09/21 09:38:37;;;;;;;;;;;;;;;;;;5044107;28;914;-65
2022/09/21 09:41:05;;;;;;;;;;;;;;;;;;5043911;28;847;-65
2022/09/21 09:43:36;;;;;;;;;;;;;;;;;;5044034;28;1009;-65
2022/09/21 09:46:28;;;;;;;;;;;;;;;;;;5043085;28;1064;-68
2022/09/21 09:49:12;;;;;;;;;;;;;;;;;;5013626;28;1894;-65
2022/09/21 09:51:39;;;;;;;;;;;;;;;;;;5025831;28;1302;-65
2022/09/21 09:54:05;;;;;;;;;;;;;;;;;;5043748;28;878;-65
2022/09/21 09:56:30;;;;;;;;;;;;;;;;;;5042865;28;811;-67
2022/09/21 09:58:56;;;;;;;;;;;;;;;;;;5043725;28;749;-65
2022/09/21 10:01:35;;;;;;;;;;;;;;;;;;5043443;28;1196;-65
2022/09/21 10:04:03;;;;;;;;;;;;;;;;;;5059086;28;834;-64
2022/09/21 10:06:32;;;;;;;;;;;;;;;;;;5042631;28;1486;-64
2022/09/21 10:08:57;;;;;;;;;;;;;;;;;;5043594;28;1894;-64
2022/09/21 10:11:32;;;;;;;;;;;;;;;;;;5043271;28;1279;-64
2022/09/21 10:14:05;;;;;;;;;;;;;;;;;;5043612;28;842;-66
2022/09/21 10:16:30;;;;;;;;;;;;;;;;;;5042858;28;882;-67
2022/09/21 10:19:00;;;;;;;;;;;;;;;;;;5043542;28;970;-67
2022/09/21 10:21:26;;;;;;;;;;;;;;;;;;5043275;28;1197;-67
2022/09/21 10:23:55;;;;;;;;;;;;;;;;;;5043379;28;839;-67
2022/09/21 10:26:20;;;;;;;;;;;;;;;;;;5042522;28;890;-67
2022/09/21 10:28:59;;;;;;;;;;;;;;;;;;5043292;28;1957;-67
2022/09/21 10:31:25;;;;;;;;;;;;;;;;;;5043172;28;1176;-67
2022/09/21 10:33:53;;;;;;;;;;;;;;;;;;5043273;28;886;-64
2022/09/21 10:36:26;;;;;;;;;;;;;;;;;;5042527;28;914;-64
2022/09/21 10:38:52;;;;;;;;;;;;;;;;;;5043168;28;830;-64
2022/09/21 10:41:17;;;;;;;;;;;;;;;;;;5043094;28;1156;-64
2022/09/21 10:43:43;;;;;;;;;;;;;;;;;;5042431;28;993;-64
2022/09/21 10:46:08;;;;;;;;;;;;;;;;;;5024670;28;850;-64
2022/09/21 10:48:34;;;;;;;;;;;;;;;;;;5042864;28;1906;-64
2022/09/21 10:50:59;;;;;;;;;;;;;;;;;;5042949;28;850;-64
2022/09/21 10:53:27;;;;;;;;;;;;;;;;;;5042725;28;1192;-64
2022/09/21 10:55:57;;;;;;;;;;;;;;;;;;5042050;28;862;-64
2022/09/21 10:58:22;;;;;;;;;;;;;;;;;;5043018;28;1029;-64
2022/09/21 11:00:50;;;;;;;;;;;;;;;;;;5042921;28;914;-64
2022/09/21 11:03:34;;;;;;;;;;;;;;;;;;5042531;28;1281;-64
2022/09/21 11:06:08;;;;;;;;;;;;;;;;;;5041894;28;1034;-64
2022/09/21 11:08:42;;;;;;;;;;;;;;;;;;5042581;28;1984;-67
2022/09/21 11:11:10;;;;;;;;;;;;;;;;;;5042862;28;1295;-64
2022/09/21 11:13:43;;;;;;;;;;;;;;;;;;5042560;28;973;-66
2022/09/21 11:16:17;;;;;;;;;;;;;;;;;;5042211;28;771;-66
2022/09/21 11:19:05;;;;;;;;;;;;;;;;;;5042494;28;897;-67
2022/09/21 11:22:05;;;;;;;;;;;;;;;;;;5042271;28;1521;-65
2022/09/21 11:24:49;;;;;;;;;;;;;;;;;;4960878;28;1294;-64
2022/09/21 11:27:23;;;;;;;;;;;;;;;;;;5019412;28;1955;-64
2022/09/21 11:29:48;;;;;;;;;;;;;;;;;;5042592;28;862;-65
2022/09/21 11:32:20;;;;;;;;;;;;;;;;;;5042324;28;1269;-65
2022/09/21 11:35:04;;;;;;;;;;;;;;;;;;5041591;28;890;-65
2022/09/21 11:37:31;;;;;;;;;;;;;;;;;;5042639;28;1117;-66
2022/09/21 11:39:57;;;;;;;;;;;;;;;;;;5042090;28;879;-66
2022/09/21 11:42:40;;;;;;;;;;;;;;;;;;5042378;28;1301;-66
2022/09/21 11:45:26;;;;;;;;;;;;;;;;;;5041440;28;887;-66
2022/09/21 11:47:51;;;;;;;;;;;;;;;;;;5041427;28;1947;-66
2022/09/21 11:50:30;;;;;;;;;;;;;;;;;;5024738;28;1103;-66
2022/09/21 11:53:19;;;;;;;;;;;;;;;;;;5042227;28;1192;-66
2022/09/21 11:56:01;;;;;;;;;;;;;;;;;;5040327;28;850;-64
2022/09/21 11:58:40;;;;;;;;;;;;;;;;;;5041870;28;906;-67
2022/09/21 12:04:14;;;;;;;;;;;;;;;;;;5076240;28;1953;-75
2022/09/21 12:06:44;;;;;;;;;;;;;;;;;;5080621;28;941;-75
2022/09/21 12:09:25;;;;;;;;;;;;;;;;;;5081120;28;1914;-75
2022/09/21 12:12:10;;;;;;;;;;;;;;;;;;5080897;28;1283;-75
2022/09/21 12:14:41;;;;;;;;;;;;;;;;;;5080423;28;1048;-75
2022/09/21 12:17:29;;;;;;;;;;;;;;;;;;5081034;28;799;-75
2022/09/21 12:20:01;;;;;;;;;;;;;;;;;;5080591;28;1979;-75
2022/09/21 12:22:27;;;;;;;;;;;;;;;;;;5080818;28;1208;-75
2022/09/21 12:24:54;;;;;;;;;;;;;;;;;;5080340;28;887;-75
2022/09/21 12:27:26;;;;;;;;;;;;;;;;;;5080907;28;1941;-75
2022/09/21 12:29:52;;;;;;;;;;;;;;;;;;5080992;28;835;-75
2022/09/21 12:32:24;;;;;;;;;;;;;;;;;;5080944;28;1166;-75
2022/09/21 12:35:03;;;;;;;;;;;;;;;;;;5080073;28;850;-75
2022/09/21 12:37:31;;;;;;;;;;;;;;;;;;5080622;28;993;-75
2022/09/21 12:40:11;;;;;;;;;;;;;;;;;;5080903;28;847;-75
2022/09/21 12:42:40;;;;;;;;;;;;;;;;;;5080794;28;1152;-75
2022/09/21 12:45:13;;;;;;;;;;;;;;;;;;5079822;28;985;-75
2022/09/21 12:47:52;;;;;;;;;;;;;;;;;;5080468;28;1953;-75
2022/09/21 12:50:24;;;;;;;;;;;;;;;;;;5080641;28;905;-75
2022/09/21 12:52:50;;;;;;;;;;;;;;;;;;5062453;28;1148;-75
2022/09/21 12:55:21;;;;;;;;;;;;;;;;;;5079655;28;997;-75
2022/09/21 12:58:06;;;;;;;;;;;;;;;;;;5080488;28;889;-75
2022/09/21 13:00:55;;;;;;;;;;;;;;;;;;5080351;28;715;-75
2022/09/21 13:03:31;;;;;;;;;;;;;;;;;;5069324;28;1533;-75
2022/09/21 13:06:29;;;;;;;;;;;;;;;;;;5080039;28;965;-75
2022/09/21 13:08:55;;;;;;;;;;;;;;;;;;5039053;28;1961;-75
2022/09/21 13:11:21;;;;;;;;;;;;;;;;;;5083821;28;969;-75
2022/09/21 13:13:51;;;;;;;;;;;;;;;;;;5083967;28;996;-75
2022/09/21 13:16:29;;;;;;;;;;;;;;;;;;5083099;28;814;-75
2022/09/21 13:18:57;;;;;;;;;;;;;;;;;;5083918;28;767;-75
2022/09/21 13:21:26;;;;;;;;;;;;;;;;;;5083479;28;1154;-75
2022/09/21 13:24:00;;;;;;;;;;;;;;;;;;5083767;28;802;-75
2022/09/21 13:26:51;;;;;;;;;;;;;;;;;;5082642;28;834;-76
2022/09/21 13:29:16;;;;;;;;;;;;;;;;;;5083633;28;1898;-75
2022/09/21 13:31:56;;;;;;;;;;;;;;;;;;5083572;28;1114;-76
2022/09/21 13:34:22;;;;;;;;;;;;;;;;;;5083500;28;802;-76
2022/09/21 13:37:07;;;;;;;;;;;;;;;;;;5083112;28;870;-75
2022/09/21 13:39:32;;;;;;;;;;;;;;;;;;5069239;28;1719;-75
2022/09/21 13:41:57;;;;;;;;;;;;;;;;;;5083566;28;1186;-76
2022/09/21 13:44:40;;;;;;;;;;;;;;;;;;5083131;28;878;-76
2022/09/21 13:47:07;;;;;;;;;;;;;;;;;;5083345;28;815;-75
2022/09/21 13:49:37;;;;;;;;;;;;;;;;;;5083760;28;1957;-75
2022/09/21 13:52:18;;;;;;;;;;;;;;;;;;5083120;28;1248;-76
2022/09/21 13:54:43;;;;;;;;;;;;;;;;;;5083235;28;815;-76
2022/09/21 13:57:16;;;;;;;;;;;;;;;;;;5083666;28;961;-75
2022/09/21 13:59:43;;;;;;;;;;;;;;;;;;5083977;28;775;-75
2022/09/21 14:02:21;;;;;;;;;;;;;;;;;;5083366;28;1279;-76
2022/09/21 14:04:47;;;;;;;;;;;;;;;;;;5083217;28;937;-75
2022/09/21 14:07:13;;;;;;;;;;;;;;;;;;5065354;28;1905;-76
2022/09/21 14:09:41;;;;;;;;;;;;;;;;;;5083900;28;818;-75
2022/09/21 14:12:08;;;;;;;;;;;;;;;;;;5083318;28;1168;-76
2022/09/21 14:14:42;;;;;;;;;;;;;;;;;;5082928;28;1004;-75
2022/09/21 14:17:27;;;;;;;;;;;;;;;;;;5064746;28;851;-75
2022/09/21 14:19:52;;;;;;;;;;;;;;;;;;5083333;28;818;-76
2022/09/21 14:22:19;;;;;;;;;;;;;;;;;;5083244;28;1145;-75
2022/09/21 14:24:50;;;;;;;;;;;;;;;;;;5082785;28;866;-76
2022/09/21 14:27:17;;;;;;;;;;;;;;;;;;5083028;28;1889;-76
2022/09/21 14:29:45;;;;;;;;;;;;;;;;;;5083310;28;1114;-75
2022/09/21 14:32:15;;;;;;;;;;;;;;;;;;5083301;28;1140;-75
2022/09/21 14:34:41;;;;;;;;;;;;;;;;;;5082643;28;862;-75
2022/09/21 14:37:14;;;;;;;;;;;;;;;;;;5083249;28;827;-75
2022/09/21 14:39:42;;;;;;;;;;;;;;;;;;5083193;28;814;-75
2022/09/21 14:42:11;;;;;;;;;;;;;;;;;;5082809;28;1118;-75
2022/09/21 14:44:37;;;;;;;;;;;;;;;;;;5082597;28;908;-75
2022/09/21 14:47:16;;;;;;;;;;;;;;;;;;5083096;28;858;-75
2022/09/21 14:49:49;;;;;;;;;;;;;;;;;;5083088;28;830;-75
2022/09/21 14:52:26;;;;;;;;;;;;;;;;;;5082713;28;1152;-76
2022/09/21 14:55:00;;;;;;;;;;;;;;;;;;5082071;28;968;-75
2022/09/21 14:57:34;;;;;;;;;;;;;;;;;;5083154;28;779;-76
2022/09/21 15:00:06;;;;;;;;;;;;;;;;;;5083312;28;779;-75
2022/09/21 15:02:34;;;;;;;;;;;;;;;;;;5082491;28;1297;-75
2022/09/21 15:05:04;;;;;;;;;;;;;;;;;;5082027;28;841;-76
2022/09/21 15:10:55;;;;;;;;;;;;;;;;;;5000950;28;1180;-75
2022/09/21 15:13:35;;;;;;;;;;;;;;;;;;5000657;28;1169;-75
2022/09/21 15:16:08;;;;;;;;;;;;;;;;;;5048661;28;911;-75
2022/09/21 15:18:39;;;;;;;;;;;;;;;;;;5082403;28;1114;-75
2022/09/21 15:21:04;;;;;;;;;;;;;;;;;;5082600;28;1044;-75
2022/09/21 15:23:39;;;;;;;;;;;;;;;;;;5082401;28;1158;-75
2022/09/21 15:26:18;;;;;;;;;;;;;;;;;;5082058;28;874;-76
2022/09/21 15:28:48;;;;;;;;;;;;;;;;;;5082211;28;1897;-76
2022/09/21 15:31:14;;;;;;;;;;;;;;;;;;5082226;28;807;-75
2022/09/21 15:33:42;;;;;;;;;;;;;;;;;;5082141;28;1266;-74
2022/09/21 15:36:08;;;;;;;;;;;;;;;;;;5081792;28;814;-74
2022/09/21 15:38:35;;;;;;;;;;;;;;;;;;5082114;28;873;-74
2022/09/21 15:41:01;;;;;;;;;;;;;;;;;;5082488;28;838;-74
2022/09/21 15:43:26;;;;;;;;;;;;;;;;;;5082028;28;1147;-75
2022/09/21 15:46:00;;;;;;;;;;;;;;;;;;5081579;28;783;-74
2022/09/21 15:48:26;;;;;;;;;;;;;;;;;;5081968;28;1949;-74
2022/09/21 15:50:54;;;;;;;;;;;;;;;;;;5082290;28;723;-74
2022/09/21 15:53:22;;;;;;;;;;;;;;;;;;5082009;28;1137;-74
2022/09/21 15:55:48;;;;;;;;;;;;;;;;;;5081369;28;1031;-74
2022/09/21 15:58:23;;;;;;;;;;;;;;;;;;5081679;28;1666;-74
2022/09/21 16:00:53;;;;;;;;;;;;;;;;;;5082040;28;890;-74
2022/09/21 16:03:19;;;;;;;;;;;;;;;;;;5081516;28;1152;-74
2022/09/21 16:05:47;;;;;;;;;;;;;;;;;;5081122;28;783;-74
2022/09/21 16:08:17;;;;;;;;;;;;;;;;;;5081982;28;1906;-75
2022/09/21 16:10:43;;;;;;;;;;;;;;;;;;5083015;28;826;-74
2022/09/21 16:16:15;;;;;;;;;;;;;;;;;;5086770;28;605;-75
2022/09/21 16:18:50;;;;;;;;;;;;;;;;;;5081484;28;828;-74
2022/09/21 16:21:21;;;;;;;;;;;;;;;;;;5081825;28;783;-75
2022/09/21 16:23:47;;;;;;;;;;;;;;;;;;5081465;28;849;-75
2022/09/21 16:26:27;;;;;;;;;;;;;;;;;;5081027;28;795;-75
2022/09/21 16:28:56;;;;;;;;;;;;;;;;;;5081165;28;1898;-75
2022/09/21 16:31:27;;;;;;;;;;;;;;;;;;5081411;28;1241;-75
2022/09/21 16:33:56;;;;;;;;;;;;;;;;;;5081319;28;886;-75
2022/09/21 16:36:32;;;;;;;;;;;;;;;;;;5080745;28;1000;-75
2022/09/21 16:38:59;;;;;;;;;;;;;;;;;;5081278;28;861;-75
2022/09/21 16:41:53;;;;;;;;;;;;;;;;;;5081023;28;1262;-75
2022/09/21 16:44:19;;;;;;;;;;;;;;;;;;5063671;28;1298;-74
2022/09/21 16:46:52;;;;;;;;;;;;;;;;;;5080702;28;850;-75
2022/09/21 16:49:21;;;;;;;;;;;;;;;;;;5081155;28;1902;-74
2022/09/21 16:51:47;;;;;;;;;;;;;;;;;;5080963;28;1286;-75
2022/09/21 16:54:13;;;;;;;;;;;;;;;;;;5080879;28;834;-75
2022/09/21 16:56:38;;;;;;;;;;;;;;;;;;5080712;28;814;-76
2022/09/21 16:59:15;;;;;;;;;;;;;;;;;;5063106;28;881;-76
2022/09/21 17:01:40;;;;;;;;;;;;;;;;;;5080928;28;1176;-76
2022/09/21 17:04:05;;;;;;;;;;;;;;;;;;5081085;28;980;-76
2022/09/21 17:06:30;;;;;;;;;;;;;;;;;;5080572;28;861;-76
2022/09/21 17:08:56;;;;;;;;;;;;;;;;;;5080802;28;1964;-76
2022/09/21 17:11:21;;;;;;;;;;;;;;;;;;5080919;28;997;-76
2022/09/21 17:13:47;;;;;;;;;;;;;;;;;;5080946;28;810;-76
2022/09/21 17:16:17;;;;;;;;;;;;;;;;;;5080195;28;1007;-76
2022/09/21 17:18:45;;;;;;;;;;;;;;;;;;5056789;28;1358;-76
2022/09/21 17:21:11;;;;;;;;;;;;;;;;;;5060590;28;905;-76
2022/09/21 17:23:36;;;;;;;;;;;;;;;;;;5060701;28;1147;-76
2022/09/21 17:26:02;;;;;;;;;;;;;;;;;;5060243;28;826;-76
2022/09/21 17:28:27;;;;;;;;;;;;;;;;;;5042626;28;1971;-76
2022/09/21 17:30:53;;;;;;;;;;;;;;;;;;5060516;28;834;-76
2022/09/21 17:33:20;;;;;;;;;;;;;;;;;;5060812;28;1168;-76
2022/09/21 17:35:45;;;;;;;;;;;;;;;;;;5060094;28;831;-76
2022/09/21 17:38:11;;;;;;;;;;;;;;;;;;5060667;28;815;-76
2022/09/21 17:40:36;;;;;;;;;;;;;;;;;;5060447;28;854;-76
2022/09/21 17:43:21;;;;;;;;;;;;;;;;;;5060604;28;1129;-76